Time;durP1;ratioP1;P1;durP2;ratioP2;P2;SDS_P1;SDS_P2;PMS_P1;PMS_P2;Temp;Humidity;BMP_temperature;BMP_pressure;BME280_temperature;BME280_humidity;BME280_pressure;Samples;Min_cycle;Max_cycle;Signal;HPM_P1;HPM_P2
2022/03/12 00:00:01;;;;;;;10.73;4.70;;;;;;;;;;5095295;28;20032;-40
2022/03/12 00:02:32;;;;;;;9.10;4.22;;;;;;;;;;5095117;28;20031;-40
2022/03/12 00:04:58;;;;;;;7.05;3.67;;;;;;;;;;5095243;28;20032;-40
2022/03/12 00:07:27;;;;;;;14.52;4.82;;;;;;;;;;5095447;28;20024;-40
2022/03/12 00:09:54;;;;;;;8.60;3.83;;;;;;;;;;5095992;28;20074;-41
2022/03/12 00:12:19;;;;;;;11.35;5.15;;;;;;;;;;5095995;28;20034;-41
2022/03/12 00:14:48;;;;;;;16.23;5.38;;;;;;;;;;5095707;28;20466;-40
2022/03/12 00:17:15;;;;;;;11.13;4.68;;;;;;;;;;5095987;28;20361;-41
2022/03/12 00:19:41;;;;;;;9.45;4.35;;;;;;;;;;5095519;28;20043;-41
2022/03/12 00:22:08;;;;;;;8.68;4.35;;;;;;;;;;5095556;28;20459;-41
2022/03/12 00:24:34;;;;;;;12.20;4.85;;;;;;;;;;5095139;28;20051;-40
2022/03/12 00:27:01;;;;;;;10.75;5.05;;;;;;;;;;5095363;28;20043;-41
2022/03/12 00:29:27;;;;;;;8.60;4.65;;;;;;;;;;5095357;28;20491;-40
2022/03/12 00:31:53;;;;;;;16.23;5.15;;;;;;;;;;5094434;28;20743;-43
2022/03/12 00:34:20;;;;;;;9.85;4.25;;;;;;;;;;5093765;28;20028;-41
2022/03/12 00:36:46;;;;;;;9.93;5.03;;;;;;;;;;5094200;28;20092;-41
2022/03/12 00:39:13;;;;;;;12.23;4.82;;;;;;;;;;5093448;28;20539;-41
2022/03/12 00:41:42;;;;;;;11.65;4.78;;;;;;;;;;5095079;28;20028;-41
2022/03/12 00:44:09;;;;;;;8.80;4.43;;;;;;;;;;5095172;28;20030;-41
2022/03/12 00:46:34;;;;;;;9.25;4.57;;;;;;;;;;5094995;28;20024;-41
2022/03/12 00:48:59;;;;;;;7.68;4.35;;;;;;;;;;5095054;28;20023;-41
2022/03/12 00:51:25;;;;;;;8.65;4.25;;;;;;;;;;5094984;28;20078;-41
2022/03/12 00:53:50;;;;;;;10.25;5.05;;;;;;;;;;5094896;28;20060;-41
2022/03/12 00:56:16;;;;;;;11.32;4.40;;;;;;;;;;5094878;28;20035;-41
2022/03/12 00:58:45;;;;;;;7.05;4.22;;;;;;;;;;5095085;28;20024;-41
2022/03/12 01:01:12;;;;;;;12.57;4.50;;;;;;;;;;5094842;28;20027;-41
2022/03/12 01:03:38;;;;;;;8.65;4.20;;;;;;;;;;5093414;28;20113;-43
2022/03/12 01:06:05;;;;;;;9.65;4.68;;;;;;;;;;5094667;28;20032;-41
2022/03/12 01:08:33;;;;;;;12.15;4.03;;;;;;;;;;5094941;28;20017;-42
2022/03/12 01:11:06;;;;;;;8.00;4.57;;;;;;;;;;5094910;28;20024;-41
2022/03/12 01:13:32;;;;;;;13.38;4.53;;;;;;;;;;5094897;28;20020;-41
2022/03/12 01:15:58;;;;;;;8.98;4.63;;;;;;;;;;5093227;28;20460;-42
2022/03/12 01:18:24;;;;;;;9.10;4.47;;;;;;;;;;5094472;28;20020;-41
2022/03/12 01:20:51;;;;;;;13.85;5.05;;;;;;;;;;5094510;28;20128;-41
2022/03/12 01:23:18;;;;;;;10.60;4.25;;;;;;;;;;5094366;28;20020;-41
2022/03/12 01:25:46;;;;;;;8.95;4.45;;;;;;;;;;5094072;28;20062;-41
2022/03/12 01:28:14;;;;;;;10.18;4.40;;;;;;;;;;5094255;28;20476;-41
2022/03/12 01:30:41;;;;;;;9.93;4.78;;;;;;;;;;5094495;28;20028;-41
2022/03/12 01:33:07;;;;;;;13.30;5.25;;;;;;;;;;5094245;28;20024;-46
2022/03/12 01:35:32;;;;;;;11.35;4.25;;;;;;;;;;5094450;28;20190;-40
2022/03/12 01:37:59;;;;;;;12.32;5.18;;;;;;;;;;5094257;28;20024;-41
2022/03/12 01:40:24;;;;;;;12.10;5.82;;;;;;;;;;5094014;28;20468;-41
2022/03/12 01:42:50;;;;;;;10.52;4.97;;;;;;;;;;5093943;28;20121;-41
2022/03/12 01:45:27;;;;;;;14.38;4.97;;;;;;;;;;5093875;28;20084;-41
2022/03/12 01:47:59;;;;;;;7.88;4.65;;;;;;;;;;5094106;28;20069;-42
2022/03/12 01:50:28;;;;;;;1.55;1.42;;;;;;;;;;5093784;28;20552;-42
2022/03/12 01:52:59;;;;;;;7.97;3.90;;;;;;;;;;5093834;28;20029;-40
2022/03/12 01:55:30;;;;;;;14.23;5.53;;;;;;;;;;5093884;28;20032;-42
2022/03/12 01:58:03;;;;;;;16.23;6.30;;;;;;;;;;5093833;28;20028;-41
2022/03/12 02:00:43;;;;;;;15.30;6.57;;;;;;;;;;5093869;28;20107;-40
2022/03/12 02:03:09;;;;;;;11.02;6.25;;;;;;;;;;5093985;28;20024;-41
2022/03/12 02:05:35;;;;;;;9.35;4.93;;;;;;;;;;5093529;28;20031;-43
2022/03/12 02:08:01;;;;;;;16.23;4.07;;;;;;;;;;5093555;28;20387;-43
2022/03/12 02:10:27;;;;;;;15.85;4.82;;;;;;;;;;5093413;28;20021;-42
2022/03/12 02:12:53;;;;;;;6.10;3.22;;;;;;;;;;5093685;28;20035;-43
2022/03/12 02:15:22;;;;;;;11.80;5.78;;;;;;;;;;5093377;28;20407;-42
2022/03/12 02:17:48;;;;;;;14.90;5.60;;;;;;;;;;5093426;28;20077;-42
2022/03/12 02:20:17;;;;;;;6.80;3.80;;;;;;;;;;5093589;28;20024;-42
2022/03/12 02:22:45;;;;;;;4.45;2.63;;;;;;;;;;5093477;28;20024;-42
2022/03/12 02:25:12;;;;;;;9.77;3.55;;;;;;;;;;5091900;28;20044;-43
2022/03/12 02:27:38;;;;;;;10.52;4.65;;;;;;;;;;5093135;28;20023;-41
2022/03/12 02:30:08;;;;;;;16.45;5.28;;;;;;;;;;5093124;28;20107;-43
2022/03/12 02:32:36;;;;;;;10.25;4.50;;;;;;;;;;5093078;28;20460;-42
2022/03/12 02:35:03;;;;;;;10.57;3.38;;;;;;;;;;5091817;28;20066;-42
2022/03/12 02:37:34;;;;;;;10.15;4.05;;;;;;;;;;5092998;28;20583;-42
2022/03/12 02:40:06;;;;;;;12.93;4.20;;;;;;;;;;5092974;28;20038;-42
2022/03/12 02:42:35;;;;;;;14.57;4.50;;;;;;;;;;5093216;28;20024;-42
2022/03/12 02:45:01;;;;;;;11.18;3.90;;;;;;;;;;5093076;28;20609;-42
2022/03/12 02:47:32;;;;;;;2.22;1.40;;;;;;;;;;5093112;28;20059;-42
2022/03/12 02:50:09;;;;;;;9.20;4.10;;;;;;;;;;5093035;28;20047;-42
2022/03/12 02:52:41;;;;;;;2.63;2.08;;;;;;;;;;5092834;28;20032;-42
2022/03/12 02:55:09;;;;;;;2.03;1.85;;;;;;;;;;5092243;28;20016;-41
2022/03/12 02:57:35;;;;;;;12.35;5.85;;;;;;;;;;5092598;28;20035;-41
2022/03/12 03:00:06;;;;;;;14.68;5.38;;;;;;;;;;5092936;28;20024;-42
2022/03/12 03:02:40;;;;;;;12.35;4.60;;;;;;;;;;5092972;28;20031;-42
2022/03/12 03:05:14;;;;;;;4.45;2.58;;;;;;;;;;5092558;28;20032;-41
2022/03/12 03:07:40;;;;;;;9.02;3.90;;;;;;;;;;5092777;28;20047;-42
2022/03/12 03:10:06;;;;;;;8.63;4.72;;;;;;;;;;5092493;28;20055;-42
2022/03/12 03:12:33;;;;;;;9.30;4.80;;;;;;;;;;5092437;28;20060;-42
2022/03/12 03:14:58;;;;;;;11.80;5.18;;;;;;;;;;5092475;28;20110;-42
2022/03/12 03:17:28;;;;;;;10.10;4.72;;;;;;;;;;5092640;28;20049;-42
2022/03/12 03:19:54;;;;;;;13.90;5.65;;;;;;;;;;5092534;28;20030;-42
2022/03/12 03:22:19;;;;;;;12.07;6.40;;;;;;;;;;5092482;28;20028;-43
2022/03/12 03:24:45;;;;;;;8.75;4.32;;;;;;;;;;5092292;28;20055;-43
2022/03/12 03:27:11;;;;;;;13.63;6.07;;;;;;;;;;5092365;28;20391;-44
2022/03/12 03:29:36;;;;;;;6.53;2.53;;;;;;;;;;5092340;28;20372;-42
2022/03/12 03:32:02;;;;;;;4.85;3.05;;;;;;;;;;5092618;28;20024;-43
2022/03/12 03:34:30;;;;;;;2.53;1.75;;;;;;;;;;5092338;28;20464;-42
2022/03/12 03:36:57;;;;;;;4.93;2.95;;;;;;;;;;5092275;28;20103;-42
2022/03/12 03:39:22;;;;;;;7.70;3.88;;;;;;;;;;5092551;28;20530;-42
2022/03/12 03:41:48;;;;;;;4.07;2.92;;;;;;;;;;5092257;28;20146;-42
2022/03/12 03:44:20;;;;;;;6.65;4.15;;;;;;;;;;5092160;28;20384;-43
2022/03/12 03:46:46;;;;;;;3.97;3.00;;;;;;;;;;5092129;28;20034;-42
2022/03/12 03:49:11;;;;;;;5.93;3.63;;;;;;;;;;5092223;28;20028;-42
2022/03/12 03:51:41;;;;;;;6.03;3.08;;;;;;;;;;5092094;28;20031;-45
2022/03/12 03:54:08;;;;;;;8.05;4.35;;;;;;;;;;5092208;28;20530;-42
2022/03/12 03:56:34;;;;;;;6.38;4.07;;;;;;;;;;5092074;28;20043;-42
2022/03/12 03:58:59;;;;;;;8.95;4.13;;;;;;;;;;5092099;28;20097;-42
2022/03/12 04:01:26;;;;;;;6.00;3.40;;;;;;;;;;5092330;28;20483;-43
2022/03/12 04:03:51;;;;;;;10.80;4.68;;;;;;;;;;5092279;28;20383;-42
2022/03/12 04:06:19;;;;;;;14.52;6.38;;;;;;;;;;5092214;28;20028;-41
2022/03/12 04:08:45;;;;;;;11.35;5.53;;;;;;;;;;5095289;28;20024;-42
2022/03/12 04:11:18;;;;;;;11.68;5.55;;;;;;;;;;5096106;28;20065;-42
2022/03/12 04:13:45;;;;;;;16.30;6.35;;;;;;;;;;5095754;28;20020;-41
2022/03/12 04:16:11;;;;;;;11.18;5.97;;;;;;;;;;5095735;28;20020;-41
2022/03/12 04:18:37;;;;;;;20.02;8.55;;;;;;;;;;5095727;28;20494;-41
2022/03/12 04:21:05;;;;;;;18.15;8.88;;;;;;;;;;5095597;28;20395;-42
2022/03/12 04:23:30;;;;;;;19.92;7.63;;;;;;;;;;5095516;28;20380;-41
2022/03/12 04:25:58;;;;;;;15.25;8.10;;;;;;;;;;5095269;28;20055;-42
2022/03/12 04:28:27;;;;;;;20.80;8.85;;;;;;;;;;5095759;28;20073;-42
2022/03/12 04:30:52;;;;;;;16.27;7.07;;;;;;;;;;5095540;28;20024;-42
2022/03/12 04:33:21;;;;;;;9.77;4.47;;;;;;;;;;5095382;28;20070;-41
2022/03/12 04:35:48;;;;;;;6.72;4.93;;;;;;;;;;5095228;28;20078;-41
2022/03/12 04:38:14;;;;;;;4.47;3.20;;;;;;;;;;5094077;28;20028;-42
2022/03/12 04:40:41;;;;;;;5.32;3.88;;;;;;;;;;5095165;28;20617;-41
2022/03/12 04:43:09;;;;;;;6.22;3.40;;;;;;;;;;5095432;28;20380;-43
2022/03/12 04:45:34;;;;;;;9.57;4.43;;;;;;;;;;5094969;28;20621;-42
2022/03/12 04:48:00;;;;;;;8.15;4.05;;;;;;;;;;5093785;28;20032;-42
2022/03/12 04:50:26;;;;;;;8.88;4.60;;;;;;;;;;5095327;28;20020;-42
2022/03/12 04:52:54;;;;;;;7.38;3.10;;;;;;;;;;5094977;28;20381;-42
2022/03/12 04:55:21;;;;;;;7.20;2.83;;;;;;;;;;5095254;28;20028;-42
2022/03/12 04:57:47;;;;;;;6.45;2.47;;;;;;;;;;5094815;28;20035;-41
2022/03/12 05:00:38;;;;;;;8.05;4.18;;;;;;;;;;5095105;28;20036;-42
2022/03/12 05:03:23;;;;;;;6.75;4.28;;;;;;;;;;5095117;28;20039;-42
2022/03/12 05:05:53;;;;;;;13.10;5.10;;;;;;;;;;5093903;28;20379;-42
2022/03/12 05:08:26;;;;;;;4.60;2.58;;;;;;;;;;5094961;28;20020;-42
2022/03/12 05:10:54;;;;;;;20.83;4.63;;;;;;;;;;5095037;28;20519;-43
2022/03/12 05:13:22;;;;;;;2.63;1.75;;;;;;;;;;5094658;28;20463;-42
2022/03/12 05:15:53;;;;;;;14.82;5.55;;;;;;;;;;5094575;28;20489;-42
2022/03/12 05:18:20;;;;;;;1.50;1.40;;;;;;;;;;5094303;28;20468;-42
2022/03/12 05:20:46;;;;;;;3.17;2.35;;;;;;;;;;5094619;28;20031;-41
2022/03/12 05:23:12;;;;;;;8.73;3.45;;;;;;;;;;5094680;28;20375;-41
2022/03/12 05:25:41;;;;;;;6.55;2.88;;;;;;;;;;5094148;28;20052;-41
2022/03/12 05:28:09;;;;;;;7.03;4.53;;;;;;;;;;5094324;28;20023;-42
2022/03/12 05:30:35;;;;;;;7.15;3.88;;;;;;;;;;5094546;28;20024;-41
2022/03/12 05:33:01;;;;;;;4.57;2.88;;;;;;;;;;5094514;28;20016;-41
2022/03/12 05:35:27;;;;;;;8.60;4.90;;;;;;;;;;5094217;28;20077;-41
2022/03/12 05:37:53;;;;;;;8.45;5.13;;;;;;;;;;5094094;28;20111;-42
2022/03/12 05:40:25;;;;;;;12.70;5.35;;;;;;;;;;5094327;28;20027;-41
2022/03/12 05:42:52;;;;;;;13.60;5.68;;;;;;;;;;5094017;28;20020;-40
2022/03/12 05:45:18;;;;;;;6.15;3.30;;;;;;;;;;5094234;28;20027;-40
2022/03/12 05:47:45;;;;;;;15.43;6.03;;;;;;;;;;5094002;28;20088;-40
2022/03/12 05:50:12;;;;;;;2.08;1.98;;;;;;;;;;5093975;28;20024;-42
2022/03/12 05:52:38;;;;;;;4.55;2.30;;;;;;;;;;5093767;28;20028;-40
2022/03/12 05:55:08;;;;;;;7.60;3.70;;;;;;;;;;5093755;28;20121;-40
2022/03/12 05:57:37;;;;;;;2.35;1.42;;;;;;;;;;5094013;28;20035;-40
2022/03/12 06:00:11;;;;;;;10.48;4.78;;;;;;;;;;5093773;28;20046;-40
2022/03/12 06:02:43;;;;;;;8.07;3.30;;;;;;;;;;5093659;28;20028;-40
2022/03/12 06:05:12;;;;;;;1.20;1.10;;;;;;;;;;5093820;28;20030;-40
2022/03/12 06:07:38;;;;;;;5.00;3.00;;;;;;;;;;5093746;28;20371;-39
2022/03/12 06:10:05;;;;;;;8.63;5.00;;;;;;;;;;5093478;28;20020;-39
2022/03/12 06:12:30;;;;;;;12.68;5.97;;;;;;;;;;5093440;28;20024;-40
2022/03/12 06:14:56;;;;;;;11.15;5.68;;;;;;;;;;5093397;28;20495;-40
2022/03/12 06:17:24;;;;;;;19.65;9.18;;;;;;;;;;5093646;28;20547;-39
2022/03/12 06:19:51;;;;;;;12.35;5.93;;;;;;;;;;5093651;28;20028;-40
2022/03/12 06:22:17;;;;;;;15.30;8.45;;;;;;;;;;5093264;28;20032;-40
2022/03/12 06:24:43;;;;;;;19.05;7.75;;;;;;;;;;5093046;28;20028;-39
2022/03/12 06:27:08;;;;;;;16.17;7.25;;;;;;;;;;5093151;28;20028;-39
2022/03/12 06:29:35;;;;;;;13.13;6.82;;;;;;;;;;5092534;28;20738;-39
2022/03/12 06:32:01;;;;;;;15.50;8.13;;;;;;;;;;5093346;28;20051;-40
2022/03/12 06:34:27;;;;;;;14.90;7.18;;;;;;;;;;5093077;28;20020;-42
2022/03/12 06:36:52;;;;;;;12.20;6.07;;;;;;;;;;5093277;28;20031;-41
2022/03/12 06:39:18;;;;;;;14.52;7.15;;;;;;;;;;5092905;28;20024;-41
2022/03/12 06:41:44;;;;;;;11.40;5.03;;;;;;;;;;5092965;28;20112;-40
2022/03/12 06:44:11;;;;;;;13.35;7.32;;;;;;;;;;5092886;28;20020;-40
2022/03/12 06:46:37;;;;;;;13.95;7.03;;;;;;;;;;5092830;28;20085;-40
2022/03/12 06:49:04;;;;;;;15.52;7.80;;;;;;;;;;5093036;28;20020;-40
2022/03/12 06:51:31;;;;;;;15.85;7.65;;;;;;;;;;5093158;28;20093;-39
2022/03/12 06:53:56;;;;;;;12.80;6.88;;;;;;;;;;5093035;28;20028;-40
2022/03/12 06:56:22;;;;;;;20.00;6.18;;;;;;;;;;5092765;28;20046;-41
2022/03/12 06:58:47;;;;;;;12.20;6.82;;;;;;;;;;5092946;28;20435;-39
2022/03/12 07:01:13;;;;;;;14.63;6.63;;;;;;;;;;5092590;28;20035;-40
2022/03/12 07:03:39;;;;;;;7.82;5.50;;;;;;;;;;5092330;28;20069;-40
2022/03/12 07:06:06;;;;;;;10.13;6.03;;;;;;;;;;5092168;28;20080;-40
2022/03/12 07:08:32;;;;;;;9.95;4.72;;;;;;;;;;5092281;28;20028;-40
2022/03/12 07:10:58;;;;;;;11.10;5.65;;;;;;;;;;5092732;28;20149;-41
2022/03/12 07:13:23;;;;;;;12.43;5.47;;;;;;;;;;5092729;28;20464;-41
2022/03/12 07:15:50;;;;;;;14.68;5.53;;;;;;;;;;5092807;28;20084;-41
2022/03/12 07:18:16;;;;;;;16.10;6.18;;;;;;;;;;5092526;28;20422;-42
2022/03/12 07:20:42;;;;;;;8.10;4.70;;;;;;;;;;5092413;28;20020;-43
2022/03/12 07:23:08;;;;;;;10.77;4.95;;;;;;;;;;5092305;28;20101;-43
2022/03/12 07:25:34;;;;;;;8.98;3.85;;;;;;;;;;5091930;28;20500;-45
2022/03/12 07:28:00;;;;;;;15.00;6.95;;;;;;;;;;5092199;28;20024;-43
2022/03/12 07:30:26;;;;;;;6.30;3.97;;;;;;;;;;5091487;28;20025;-40
2022/03/12 07:32:52;;;;;;;9.52;5.40;;;;;;;;;;5091770;28;20024;-43
2022/03/12 07:35:18;;;;;;;12.07;6.00;;;;;;;;;;5092865;28;20035;-41
2022/03/12 07:37:46;;;;;;;6.88;4.55;;;;;;;;;;5092329;28;20458;-42
2022/03/12 07:40:13;;;;;;;7.35;4.50;;;;;;;;;;5092410;28;20024;-42
2022/03/12 07:42:39;;;;;;;13.90;7.57;;;;;;;;;;5095951;28;20028;-41
2022/03/12 07:45:07;;;;;;;7.72;5.03;;;;;;;;;;5095421;28;20031;-40
2022/03/12 07:47:34;;;;;;;7.10;4.20;;;;;;;;;;5094049;28;20057;-41
2022/03/12 07:50:00;;;;;;;11.68;5.65;;;;;;;;;;5094319;28;20384;-40
2022/03/12 07:52:25;;;;;;;12.45;5.00;;;;;;;;;;5095179;28;20020;-41
2022/03/12 07:54:51;;;;;;;11.90;7.30;;;;;;;;;;5095639;28;20028;-41
2022/03/12 07:57:17;;;;;;;10.40;5.65;;;;;;;;;;5095915;28;20049;-41
2022/03/12 07:59:44;;;;;;;9.88;4.72;;;;;;;;;;5096077;28;20209;-41
2022/03/12 08:02:10;;;;;;;7.72;4.60;;;;;;;;;;5096167;28;20039;-41
2022/03/12 08:04:35;;;;;;;7.90;4.07;;;;;;;;;;5095950;28;20028;-42
2022/03/12 08:07:02;;;;;;;7.32;4.70;;;;;;;;;;5095678;28;20490;-43
2022/03/12 08:09:29;;;;;;;8.07;4.43;;;;;;;;;;5095867;28;20028;-40
2022/03/12 08:11:57;;;;;;;8.60;5.07;;;;;;;;;;5095822;28;20020;-42
2022/03/12 08:14:23;;;;;;;9.55;4.95;;;;;;;;;;5095725;28;20028;-41
2022/03/12 08:16:50;;;;;;;11.20;4.95;;;;;;;;;;5095995;28;20028;-40
2022/03/12 08:19:15;;;;;;;6.57;4.25;;;;;;;;;;5095526;28;20050;-40
2022/03/12 08:21:41;;;;;;;4.80;3.15;;;;;;;;;;5095824;28;20016;-40
2022/03/12 08:24:09;;;;;;;10.65;4.97;;;;;;;;;;5095643;28;20028;-40
2022/03/12 08:26:41;;;;;;;6.70;4.57;;;;;;;;;;5095149;28;20534;-40
2022/03/12 08:29:09;;;;;;;12.00;4.03;;;;;;;;;;5095450;28;20066;-40
2022/03/12 08:31:35;;;;;;;8.43;4.53;;;;;;;;;;5095450;28;20163;-41
2022/03/12 08:34:00;;;;;;;7.22;3.72;;;;;;;;;;5095665;28;20020;-40
2022/03/12 08:36:26;;;;;;;19.38;4.07;;;;;;;;;;5095586;28;20020;-40
2022/03/12 08:38:51;;;;;;;3.88;3.13;;;;;;;;;;5095481;28;20059;-43
2022/03/12 08:41:17;;;;;;;9.00;3.70;;;;;;;;;;5095129;28;20021;-43
2022/03/12 08:43:43;;;;;;;6.68;3.78;;;;;;;;;;5095275;28;20035;-43
2022/03/12 08:46:09;;;;;;;4.10;2.55;;;;;;;;;;5095093;28;20612;-40
2022/03/12 08:48:35;;;;;;;5.13;3.42;;;;;;;;;;5093763;28;20024;-40
2022/03/12 08:51:02;;;;;;;4.38;3.35;;;;;;;;;;5095053;28;20029;-41
2022/03/12 08:53:28;;;;;;;7.32;4.03;;;;;;;;;;5094323;28;20046;-44
2022/03/12 08:55:53;;;;;;;4.93;3.60;;;;;;;;;;5095061;28;20455;-43
2022/03/12 08:58:20;;;;;;;7.38;3.13;;;;;;;;;;5094825;28;20020;-42
2022/03/12 09:00:45;;;;;;;4.82;3.40;;;;;;;;;;5094712;28;20135;-41
2022/03/12 09:03:12;;;;;;;8.32;3.72;;;;;;;;;;5094645;28;20102;-38
2022/03/12 09:05:38;;;;;;;17.63;4.40;;;;;;;;;;5094560;28;20027;-41
2022/03/12 09:08:04;;;;;;;5.93;3.67;;;;;;;;;;5094776;28;20046;-41
2022/03/12 09:10:30;;;;;;;7.75;3.70;;;;;;;;;;5094570;28;20468;-41
2022/03/12 09:12:56;;;;;;;3.25;2.80;;;;;;;;;;5094747;28;20027;-40
2022/03/12 09:15:24;;;;;;;6.47;4.05;;;;;;;;;;5094669;28;20028;-41
2022/03/12 09:17:53;;;;;;;7.50;4.05;;;;;;;;;;5094431;28;20386;-39
2022/03/12 09:20:20;;;;;;;4.43;3.17;;;;;;;;;;5094512;28;20024;-39
2022/03/12 09:22:46;;;;;;;2.05;1.80;;;;;;;;;;5094586;28;20430;-41
2022/03/12 09:25:13;;;;;;;5.68;4.25;;;;;;;;;;5093942;28;20052;-41
2022/03/12 09:27:44;;;;;;;5.70;3.50;;;;;;;;;;5094390;28;20043;-39
2022/03/12 09:30:12;;;;;;;7.47;4.40;;;;;;;;;;5094145;28;20097;-40
2022/03/12 09:32:38;;;;;;;7.20;3.72;;;;;;;;;;5094150;28;20024;-38
2022/03/12 09:35:05;;;;;;;7.28;4.47;;;;;;;;;;5093947;28;20024;-38
2022/03/12 09:37:31;;;;;;;7.32;3.63;;;;;;;;;;5092752;28;20072;-39
2022/03/12 09:39:56;;;;;;;9.93;4.60;;;;;;;;;;5093921;28;20028;-38
2022/03/12 09:42:23;;;;;;;6.93;4.30;;;;;;;;;;5094146;28;20031;-40
2022/03/12 09:44:48;;;;;;;5.93;3.90;;;;;;;;;;5094103;28;20046;-39
2022/03/12 09:47:14;;;;;;;8.38;5.38;;;;;;;;;;5093623;28;20060;-39
2022/03/12 09:49:40;;;;;;;7.30;4.47;;;;;;;;;;5093777;28;20124;-39
2022/03/12 09:52:06;;;;;;;5.85;3.38;;;;;;;;;;5094129;28;20035;-39
2022/03/12 09:54:32;;;;;;;5.93;3.03;;;;;;;;;;5094129;28;20161;-41
2022/03/12 09:56:57;;;;;;;8.50;5.35;;;;;;;;;;5093723;28;20030;-41
2022/03/12 09:59:23;;;;;;;6.75;3.33;;;;;;;;;;5093682;28;20032;-40
2022/03/12 10:01:49;;;;;;;1.83;1.73;;;;;;;;;;5093744;28;20024;-41
2022/03/12 10:04:16;;;;;;;4.30;3.17;;;;;;;;;;5092017;28;20455;-40
2022/03/12 10:06:44;;;;;;;6.70;3.70;;;;;;;;;;5091033;28;20056;-39
2022/03/12 10:09:10;;;;;;;7.88;4.45;;;;;;;;;;5091223;28;20486;-42
2022/03/12 10:11:35;;;;;;;7.47;4.03;;;;;;;;;;5093012;28;20032;-40
2022/03/12 10:14:01;;;;;;;6.90;4.53;;;;;;;;;;5092429;28;20047;-39
2022/03/12 10:16:29;;;;;;;4.93;3.17;;;;;;;;;;5093496;28;20081;-39
2022/03/12 10:18:55;;;;;;;4.95;3.55;;;;;;;;;;5093276;28;20051;-39
2022/03/12 10:21:22;;;;;;;7.70;4.18;;;;;;;;;;5093184;28;20476;-39
2022/03/12 10:23:48;;;;;;;5.20;3.33;;;;;;;;;;5092996;28;20035;-37
2022/03/12 10:26:13;;;;;;;7.93;4.25;;;;;;;;;;5092848;28;20051;-41
2022/03/12 10:28:39;;;;;;;4.22;2.70;;;;;;;;;;5093015;28;20035;-41
2022/03/12 10:31:05;;;;;;;7.50;4.20;;;;;;;;;;5092954;28;20017;-40
2022/03/12 10:33:31;;;;;;;4.80;2.33;;;;;;;;;;5093003;28;20031;-41
2022/03/12 10:36:18;;;;;;;2.75;2.38;;;;;;;;;;5092911;28;20080;-39
2022/03/12 10:38:50;;;;;;;5.18;3.70;;;;;;;;;;5090720;28;20032;-41
2022/03/12 10:41:17;;;;;;;6.20;4.32;;;;;;;;;;5092237;28;20051;-41
2022/03/12 10:43:51;;;;;;;6.15;3.28;;;;;;;;;;5091946;28;20051;-40
2022/03/12 10:46:28;;;;;;;3.13;2.58;;;;;;;;;;5092693;28;20492;-39
2022/03/12 10:48:59;;;;;;;3.33;2.67;;;;;;;;;;5092375;28;20352;-39
2022/03/12 10:51:30;;;;;;;5.63;3.40;;;;;;;;;;5090679;28;20035;-39
2022/03/12 10:54:15;;;;;;;7.25;4.38;;;;;;;;;;5070558;28;20110;-39
2022/03/12 10:56:42;;;;;;;5.63;2.70;;;;;;;;;;5071019;28;20017;-39
2022/03/12 10:59:19;;;;;;;2.58;2.25;;;;;;;;;;5072655;28;20388;-38
2022/03/12 11:01:53;;;;;;;4.15;2.13;;;;;;;;;;5071160;28;20020;-39
2022/03/12 11:04:24;;;;;;;5.85;4.30;;;;;;;;;;5090783;28;20031;-39
2022/03/12 11:06:55;;;;;;;5.78;3.50;;;;;;;;;;5092456;28;20532;-39
2022/03/12 11:09:41;;;;;;;7.57;3.83;;;;;;;;;;5092097;28;20085;-39
2022/03/12 11:12:35;;;;;;;3.40;2.80;;;;;;;;;;5089445;28;20107;-39
2022/03/12 11:15:15;;;;;;;4.32;2.75;;;;;;;;;;5092416;28;20528;-40
2022/03/12 11:17:49;;;;;;;6.25;3.28;;;;;;;;;;5091550;28;20059;-39
2022/03/12 11:20:26;;;;;;;5.07;2.97;;;;;;;;;;5092402;28;20119;-38
2022/03/12 11:23:06;;;;;;;2.22;1.88;;;;;;;;;;5091993;28;20024;-40
2022/03/12 11:25:31;;;;;;;2.93;2.47;;;;;;;;;;5089985;28;20588;-40
2022/03/12 11:28:00;;;;;;;4.75;2.80;;;;;;;;;;5092226;28;20020;-39
2022/03/12 11:30:30;;;;;;;5.53;3.35;;;;;;;;;;5092596;28;20023;-39
2022/03/12 11:33:06;;;;;;;5.03;2.72;;;;;;;;;;5092372;28;20028;-50
2022/03/12 11:35:44;;;;;;;5.55;3.75;;;;;;;;;;5092236;28;20497;-48
2022/03/12 11:38:21;;;;;;;4.43;3.33;;;;;;;;;;5091773;28;20488;-48
2022/03/12 11:40:50;;;;;;;2.53;1.73;;;;;;;;;;5090921;28;20107;-50
2022/03/12 11:43:30;;;;;;;10.23;3.95;;;;;;;;;;5091907;28;20376;-49
2022/03/12 11:45:59;;;;;;;7.63;3.43;;;;;;;;;;5091442;28;20028;-48
2022/03/12 11:48:29;;;;;;;4.68;3.80;;;;;;;;;;5091588;28;20034;-48
2022/03/12 11:50:55;;;;;;;3.00;2.58;;;;;;;;;;5092075;28;20024;-48
2022/03/12 11:53:21;;;;;;;4.88;3.30;;;;;;;;;;5092116;28;20031;-50
2022/03/12 11:55:49;;;;;;;8.82;3.63;;;;;;;;;;5092331;28;20103;-52
2022/03/12 11:58:15;;;;;;;7.07;4.20;;;;;;;;;;5091592;28;20028;-47
2022/03/12 12:00:45;;;;;;;4.95;3.47;;;;;;;;;;5090597;28;20062;-53
2022/03/12 12:03:12;;;;;;;5.60;4.00;;;;;;;;;;5092298;28;20023;-47
2022/03/12 12:05:41;;;;;;;5.03;4.10;;;;;;;;;;5091777;28;20480;-50
2022/03/12 12:08:08;;;;;;;6.40;3.70;;;;;;;;;;5091923;28;20082;-50
2022/03/12 12:10:39;;;;;;;8.32;4.50;;;;;;;;;;5091884;28;20024;-49
2022/03/12 12:13:04;;;;;;;6.47;3.83;;;;;;;;;;5091658;28;20479;-49
2022/03/12 12:15:34;;;;;;;4.35;2.78;;;;;;;;;;5091746;28;20103;-48
2022/03/12 12:18:02;;;;;;;5.50;3.10;;;;;;;;;;5091886;28;20056;-48
2022/03/12 12:20:29;;;;;;;4.47;3.15;;;;;;;;;;5091951;28;20585;-47
2022/03/12 12:22:59;;;;;;;3.28;2.45;;;;;;;;;;5088706;28;20028;-50
2022/03/12 12:25:28;;;;;;;10.85;4.18;;;;;;;;;;5091598;28;20040;-46
2022/03/12 12:27:55;;;;;;;4.20;2.25;;;;;;;;;;5090740;28;20384;-46
2022/03/12 12:30:42;;;;;;;3.20;2.60;;;;;;;;;;5094154;28;20031;-51
2022/03/12 12:33:20;;;;;;;4.55;3.40;;;;;;;;;;5093852;28;20028;-52
2022/03/12 12:35:48;;;;;;;6.13;3.83;;;;;;;;;;5093778;28;20484;-47
2022/03/12 12:38:17;;;;;;;7.03;4.45;;;;;;;;;;5093626;28;20032;-46
2022/03/12 12:40:53;;;;;;;3.58;2.97;;;;;;;;;;5093815;28;20024;-48
2022/03/12 12:43:26;;;;;;;5.13;3.65;;;;;;;;;;5093537;28;20024;-47
2022/03/12 12:45:52;;;;;;;2.05;1.88;;;;;;;;;;5093921;28;20035;-49
2022/03/12 12:48:20;;;;;;;3.13;2.78;;;;;;;;;;5093475;28;20376;-47
2022/03/12 12:51:10;;;;;;;2.83;1.65;;;;;;;;;;5092524;28;20028;-44
2022/03/12 12:53:49;;;;;;;2.97;2.50;;;;;;;;;;5093388;28;20031;-49
2022/03/12 12:56:36;;;;;;;3.60;2.55;;;;;;;;;;5093421;28;20039;-45
2022/03/12 12:59:02;;;;;;;5.85;3.70;;;;;;;;;;5093700;28;20036;-51
2022/03/12 13:01:40;;;;;;;8.38;4.13;;;;;;;;;;5093363;28;20077;-49
2022/03/12 13:04:11;;;;;;;5.00;3.70;;;;;;;;;;5093248;28;20182;-48
2022/03/12 13:06:37;;;;;;;6.38;3.50;;;;;;;;;;5093287;28;20032;-48
2022/03/12 13:09:07;;;;;;;4.57;3.72;;;;;;;;;;5092993;28;20213;-48
2022/03/12 13:11:35;;;;;;;4.80;3.50;;;;;;;;;;5093076;28;20036;-47
2022/03/12 13:14:11;;;;;;;5.43;3.78;;;;;;;;;;5092050;28;20046;-52
2022/03/12 13:16:54;;;;;;;5.28;3.83;;;;;;;;;;5093375;28;20032;-46
2022/03/12 13:19:28;;;;;;;8.65;3.97;;;;;;;;;;5092869;28;20032;-46
2022/03/12 13:21:58;;;;;;;5.82;4.30;;;;;;;;;;5092909;28;20024;-49
2022/03/12 13:24:27;;;;;;;5.32;3.80;;;;;;;;;;5093034;28;20027;-46
2022/03/12 13:26:53;;;;;;;5.95;2.78;;;;;;;;;;5092909;28;20400;-56
2022/03/12 13:29:22;;;;;;;4.00;2.70;;;;;;;;;;5093062;28;20024;-47
2022/03/12 13:31:48;;;;;;;7.93;3.72;;;;;;;;;;5092790;28;20815;-49
2022/03/12 13:34:15;;;;;;;5.13;3.55;;;;;;;;;;5092792;28;20036;-47
2022/03/12 13:36:45;;;;;;;5.05;3.97;;;;;;;;;;5091228;28;20022;-51
2022/03/12 13:39:12;;;;;;;;;;;;;;;;;;5093072;28;20032;-48
2022/03/12 13:41:41;;;;;;;4.85;3.25;;;;;;;;;;5091071;28;19972;-49
2022/03/12 13:44:07;;;;;;;5.30;2.60;;;;;;;;;;5092418;28;20024;-51
2022/03/12 13:46:33;;;;;;;5.90;3.47;;;;;;;;;;5092234;28;20034;-58
2022/03/12 13:49:05;;;;;;;5.72;3.90;;;;;;;;;;5092203;28;20035;-52
2022/03/12 13:51:33;;;;;;;8.30;3.80;;;;;;;;;;5092215;28;20028;-56
2022/03/12 13:54:01;;;;;;;6.53;3.40;;;;;;;;;;5092010;28;20031;-54
2022/03/12 13:56:28;;;;;;;5.80;4.00;;;;;;;;;;5092374;28;20027;-50
2022/03/12 13:59:03;;;;;;;4.38;3.35;;;;;;;;;;5092283;28;20037;-43
2022/03/12 14:01:40;;;;;;;6.10;3.55;;;;;;;;;;5090748;28;20116;-45
2022/03/12 14:04:17;;;;;;;6.22;3.58;;;;;;;;;;5092084;28;20085;-42
2022/03/12 14:06:44;;;;;;;4.82;2.35;;;;;;;;;;5092063;28;20436;-46
2022/03/12 14:09:12;;;;;;;4.60;3.38;;;;;;;;;;5091847;28;20020;-47
2022/03/12 14:11:43;;;;;;;5.93;3.53;;;;;;;;;;5092181;28;20020;-43
2022/03/12 14:14:11;;;;;;;6.78;4.00;;;;;;;;;;5093440;28;20039;-44
2022/03/12 14:16:43;;;;;;;8.73;3.80;;;;;;;;;;5093563;28;20027;-46
2022/03/12 14:19:10;;;;;;;6.10;3.55;;;;;;;;;;5093476;28;20028;-47
2022/03/12 14:21:42;;;;;;;5.95;3.53;;;;;;;;;;5093248;28;20032;-44
2022/03/12 14:24:19;;;;;;;7.45;3.60;;;;;;;;;;5093355;28;20383;-44
2022/03/12 14:26:51;;;;;;;5.90;3.88;;;;;;;;;;5092828;28;20044;-44
2022/03/12 14:29:25;;;;;;;7.95;3.40;;;;;;;;;;5093429;28;20055;-43
2022/03/12 14:31:54;;;;;;;5.95;3.60;;;;;;;;;;5093182;28;20024;-52
2022/03/12 14:34:20;;;;;;;5.95;3.55;;;;;;;;;;5093435;28;20217;-49
2022/03/12 14:36:46;;;;;;;6.38;3.85;;;;;;;;;;5093042;28;20020;-47
2022/03/12 14:39:14;;;;;;;6.40;3.35;;;;;;;;;;5093098;28;20030;-52
2022/03/12 14:41:41;;;;;;;7.82;3.88;;;;;;;;;;5092995;28;20507;-49
2022/03/12 14:44:11;;;;;;;6.03;2.92;;;;;;;;;;5092995;28;20035;-52